Time;durP1;ratioP1;P1;durP2;ratioP2;P2;SDS_P1;SDS_P2;PMS_P1;PMS_P2;Temp;Humidity;BMP_temperature;BMP_pressure;BME280_temperature;BME280_humidity;BME280_pressure;Samples;Min_cycle;Max_cycle;Signal;HPM_P1;HPM_P2
2023/04/08 00:00:45;;;;;;;1.83;1.20;;;22.10;66.30;;;;;;5015481;28;20287;-55
2023/04/08 00:03:12;;;;;;;1.50;1.40;;;22.10;66.30;;;;;;5011212;28;20955;-56
2023/04/08 00:05:38;;;;;;;1.60;1.50;;;22.10;66.30;;;;;;5016812;28;20250;-53
2023/04/08 00:08:06;;;;;;;1.73;1.20;;;22.00;66.20;;;;;;5015539;28;20269;-56
2023/04/08 00:10:34;;;;;;;2.58;1.10;;;22.10;66.40;;;;;;5011616;28;20295;-52
2023/04/08 00:13:00;;;;;;;3.83;1.70;;;22.10;67.20;;;;;;5010847;28;20620;-54
2023/04/08 00:15:27;;;;;;;1.85;1.50;;;22.00;66.20;;;;;;5016242;28;20471;-57
2023/04/08 00:17:54;;;;;;;1.30;1.20;;;22.00;66.30;;;;;;5011052;28;20731;-56
2023/04/08 00:20:21;;;;;;;1.80;1.70;;;22.00;66.30;;;;;;5010350;28;20248;-51
2023/04/08 00:22:47;;;;;;;1.80;1.70;;;22.00;66.20;;;;;;5015708;28;20222;-55
2023/04/08 00:25:14;;;;;;;1.52;1.42;;;22.00;66.20;;;;;;5010712;28;20193;-54
2023/04/08 00:27:42;;;;;;;1.35;1.25;;;22.00;66.30;;;;;;5012462;28;20520;-54
2023/04/08 00:30:10;;;;;;;1.50;1.40;;;22.00;66.30;;;;;;5009782;28;20193;-51
2023/04/08 00:32:37;;;;;;;1.60;1.38;;;21.90;66.20;;;;;;5014211;28;20196;-51
2023/04/08 00:35:04;;;;;;;1.60;1.20;;;22.00;67.20;;;;;;5010840;28;20193;-52
2023/04/08 00:37:34;;;;;;;2.08;1.40;;;21.90;66.20;;;;;;5012244;28;20200;-53
2023/04/08 00:40:00;;;;;;;1.52;1.42;;;21.90;66.20;;;;;;5017701;28;20200;-49
2023/04/08 00:42:29;;;;;;;2.30;1.45;;;21.90;66.20;;;;;;5010673;28;20649;-53
2023/04/08 00:44:59;;;;;;;1.70;1.60;;;21.90;66.20;;;;;;5009852;28;20569;-55
2023/04/08 00:47:26;;;;;;;1.33;1.20;;;21.90;66.20;;;;;;5009988;28;20298;-53
2023/04/08 00:49:52;;;;;;;1.40;1.30;;;21.90;66.30;;;;;;5015869;28;20247;-51
2023/04/08 00:52:19;;;;;;;1.45;1.20;;;21.90;67.10;;;;;;5013606;28;20198;-54
2023/04/08 00:54:46;;;;;;;1.83;1.20;;;21.80;66.20;;;;;;5010401;28;20207;-58
2023/04/08 00:57:18;;;;;;;4.07;1.60;;;21.80;66.20;;;;;;5015188;28;20258;-50
2023/04/08 00:59:45;;;;;;;2.05;1.60;;;21.80;66.20;;;;;;5009975;28;20711;-52
2023/04/08 01:02:19;;;;;;;1.75;1.35;;;21.80;66.20;;;;;;5013010;28;20196;-55
2023/04/08 01:04:55;;;;;;;1.40;1.10;;;21.80;66.30;;;;;;5013586;28;20192;-55
2023/04/08 01:07:26;;;;;;;1.90;1.70;;;21.80;66.20;;;;;;5011120;28;20626;-54
2023/04/08 01:09:56;;;;;;;1.70;1.60;;;21.80;66.20;;;;;;5021476;28;20686;-55
2023/04/08 01:12:28;;;;;;;2.10;1.90;;;21.80;66.20;;;;;;5025455;28;20612;-53
2023/04/08 01:15:00;;;;;;;1.63;1.13;;;21.70;66.20;;;;;;5013944;28;20188;-55
2023/04/08 01:17:30;;;;;;;1.70;1.60;;;21.70;66.20;;;;;;5018753;28;20254;-54
2023/04/08 01:19:59;;;;;;;1.58;1.33;;;21.70;66.20;;;;;;5025784;28;20196;-55
2023/04/08 01:22:34;;;;;;;1.35;1.25;;;21.70;66.20;;;;;;5018977;28;20212;-54
2023/04/08 01:25:06;;;;;;;3.20;1.55;;;21.70;66.20;;;;;;5028278;28;20198;-57
2023/04/08 01:27:35;;;;;;;1.40;1.20;;;21.70;66.20;;;;;;5018608;28;20215;-51
2023/04/08 01:30:04;;;;;;;1.42;1.33;;;21.70;66.30;;;;;;5029775;28;20207;-54
2023/04/08 01:32:32;;;;;;;1.92;1.40;;;21.70;66.40;;;;;;5021074;28;20196;-56
2023/04/08 01:35:03;;;;;;;1.30;1.20;;;21.70;66.20;;;;;;5018148;28;20291;-52
2023/04/08 01:37:30;;;;;;;1.40;1.30;;;21.70;66.20;;;;;;5025235;28;20263;-54
2023/04/08 01:39:59;;;;;;;1.33;1.20;;;21.60;66.20;;;;;;5024102;28;20710;-51
2023/04/08 01:42:27;;;;;;;1.85;1.75;;;21.60;66.20;;;;;;5028056;28;20296;-53
2023/04/08 01:44:59;;;;;;;1.42;1.33;;;21.60;66.20;;;;;;5016616;28;20208;-55
2023/04/08 01:47:28;;;;;;;1.52;1.35;;;21.60;67.00;;;;;;5015568;28;20208;-57
2023/04/08 01:49:56;;;;;;;1.45;1.20;;;21.60;66.20;;;;;;5025938;28;20235;-53
2023/04/08 01:52:25;;;;;;;1.40;1.20;;;21.60;66.20;;;;;;5015931;28;20917;-54
2023/04/08 01:54:52;;;;;;;1.42;1.30;;;21.60;66.20;;;;;;5027702;28;20246;-51
2023/04/08 01:57:24;;;;;;;1.20;1.10;;;21.50;66.20;;;;;;5026471;28;20203;-55
2023/04/08 01:59:53;;;;;;;1.20;1.02;;;21.50;66.20;;;;;;5024671;28;20196;-57
2023/04/08 02:02:24;;;;;;;1.30;1.20;;;21.50;66.20;;;;;;5021250;28;20197;-53
2023/04/08 02:04:51;;;;;;;2.65;1.30;;;21.50;66.30;;;;;;5021692;28;20196;-53
2023/04/08 02:14:31;;;;;;;;;;;;;;;;;;;;;
2023/04/08 02:17:12;;;;;;;1.23;1.13;;;21.50;66.30;;;;;;5028166;28;20200;-52
2023/04/08 02:19:46;;;;;;;1.65;0.98;;;21.50;66.30;;;;;;5027100;28;20235;-52
2023/04/08 02:22:24;;;;;;;1.85;1.40;;;21.50;66.30;;;;;;5024976;28;20208;-54
2023/04/08 02:24:53;;;;;;;1.50;1.40;;;21.50;66.20;;;;;;5027537;28;20691;-52
2023/04/08 02:27:24;;;;;;;1.27;1.17;;;21.50;66.30;;;;;;5026988;28;20220;-55
2023/04/08 02:29:53;;;;;;;1.40;1.17;;;21.40;66.20;;;;;;5019552;28;20196;-52
2023/04/08 02:32:20;;;;;;;2.22;1.48;;;21.40;66.20;;;;;;5014524;28;20196;-54
2023/04/08 02:34:49;;;;;;;1.70;1.45;;;21.40;66.20;;;;;;5022599;28;20196;-56
2023/04/08 02:37:15;;;;;;;1.27;1.17;;;21.40;66.20;;;;;;5019279;28;20191;-51
2023/04/08 02:39:42;;;;;;;1.25;1.15;;;21.40;66.20;;;;;;5022077;28;20652;-58
2023/04/08 02:42:09;;;;;;;1.30;1.20;;;21.40;66.30;;;;;;5018994;28;20204;-53
2023/04/08 02:44:35;;;;;;;4.43;1.40;;;21.40;66.30;;;;;;5024343;28;20200;-51
2023/04/08 02:47:05;;;;;;;1.52;1.10;;;21.40;66.30;;;;;;5021972;28;20223;-54
2023/04/08 02:49:31;;;;;;;1.88;1.10;;;21.40;66.20;;;;;;5018669;28;20197;-52
2023/04/08 02:51:59;;;;;;;1.60;1.20;;;21.40;66.20;;;;;;5017755;28;20674;-54
2023/04/08 02:54:26;;;;;;;1.98;1.30;;;21.40;66.30;;;;;;5023583;28;20197;-52
2023/04/08 02:56:53;;;;;;;1.50;1.20;;;21.40;66.30;;;;;;5021240;28;20192;-54
2023/04/08 02:59:19;;;;;;;1.30;1.20;;;21.40;66.30;;;;;;5024685;28;20200;-54
2023/04/08 03:01:46;;;;;;;1.77;1.20;;;21.40;66.30;;;;;;5020446;28;20230;-53
2023/04/08 03:04:13;;;;;;;1.20;1.10;;;21.40;66.20;;;;;;5021480;28;20602;-58
2023/04/08 03:06:39;;;;;;;1.50;1.20;;;21.40;66.30;;;;;;5018253;28;20200;-50
2023/04/08 03:09:08;;;;;;;1.15;0.93;;;21.30;66.20;;;;;;5029794;28;20224;-53
2023/04/08 03:11:35;;;;;;;1.40;1.27;;;21.30;66.20;;;;;;5016024;28;20195;-51
2023/04/08 03:14:01;;;;;;;2.15;1.30;;;21.30;66.20;;;;;;5011410;28;20201;-55
2023/04/08 03:16:28;;;;;;;1.48;1.17;;;21.30;66.20;;;;;;5013724;28;20197;-54
2023/04/08 03:18:55;;;;;;;1.90;1.10;;;21.30;66.30;;;;;;5022909;28;20200;-51
2023/04/08 03:21:21;;;;;;;1.30;1.20;;;21.30;66.30;;;;;;5021503;28;20245;-57
2023/04/08 03:23:48;;;;;;;1.40;1.30;;;21.30;66.20;;;;;;5010659;28;20204;-50
2023/04/08 03:26:16;;;;;;;1.38;1.27;;;21.30;66.20;;;;;;5020938;28;20673;-52
2023/04/08 03:28:43;;;;;;;1.40;1.15;;;21.30;66.20;;;;;;5011945;28;20251;-51
2023/04/08 03:31:11;;;;;;;1.30;1.20;;;21.30;66.20;;;;;;5014631;28;20227;-51
2023/04/08 03:33:40;;;;;;;1.40;1.30;;;21.30;66.30;;;;;;5018788;28;20234;-55
2023/04/08 03:36:07;;;;;;;1.00;0.90;;;21.30;66.30;;;;;;5019670;28;20200;-54
2023/04/08 03:38:37;;;;;;;1.38;1.20;;;21.30;66.30;;;;;;5025680;28;20538;-54
2023/04/08 03:41:04;;;;;;;1.20;1.10;;;21.30;66.30;;;;;;5020728;28;20196;-55
2023/04/08 03:43:32;;;;;;;1.40;1.25;;;21.20;66.20;;;;;;5015877;28;20604;-55
2023/04/08 03:45:58;;;;;;;1.10;0.93;;;21.20;66.10;;;;;;5017224;28;20196;-53
2023/04/08 03:48:25;;;;;;;1.10;1.00;;;21.30;66.20;;;;;;5018160;28;20247;-53
2023/04/08 03:50:52;;;;;;;1.30;1.13;;;21.20;66.20;;;;;;5007838;28;20204;-55
2023/04/08 03:53:19;;;;;;;1.25;1.15;;;21.20;66.20;;;;;;5024697;28;20203;-54
2023/04/08 03:55:45;;;;;;;0.88;0.75;;;21.20;66.20;;;;;;5017196;28;20189;-56
2023/04/08 03:58:12;;;;;;;1.10;0.90;;;21.20;66.20;;;;;;5017351;28;20207;-50
2023/04/08 04:00:40;;;;;;;1.42;1.33;;;21.20;66.20;;;;;;5015859;28;20239;-53
2023/04/08 04:03:07;;;;;;;1.10;0.90;;;21.20;66.20;;;;;;5010867;28;20193;-54
2023/04/08 04:05:34;;;;;;;1.85;1.20;;;21.20;66.20;;;;;;5011137;28;20200;-51
2023/04/08 04:08:01;;;;;;;1.40;1.30;;;21.20;66.20;;;;;;5016772;28;20232;-53
2023/04/08 04:10:27;;;;;;;1.10;0.98;;;21.20;66.20;;;;;;5010196;28;20207;-52
2023/04/08 04:12:54;;;;;;;1.42;1.30;;;21.20;66.20;;;;;;5013921;28;20200;-51
2023/04/08 04:15:21;;;;;;;1.25;1.10;;;21.20;66.20;;;;;;5011431;28;20215;-53
2023/04/08 04:17:52;;;;;;;1.40;1.30;;;21.10;66.10;;;;;;5022342;28;20545;-51
2023/04/08 04:20:20;;;;;;;1.10;1.00;;;21.10;66.10;;;;;;5017707;28;20200;-54
2023/04/08 04:22:47;;;;;;;1.40;1.10;;;21.10;67.00;;;;;;5020489;28;20266;-53
2023/04/08 04:25:14;;;;;;;1.05;0.90;;;21.10;66.20;;;;;;5009094;28;20209;-57
2023/04/08 04:27:40;;;;;;;1.00;0.85;;;21.20;66.30;;;;;;5011294;28;20200;-55
2023/04/08 04:30:09;;;;;;;1.15;1.05;;;21.10;66.10;;;;;;5014108;28;20200;-54
2023/04/08 04:32:37;;;;;;;1.92;1.33;;;21.10;66.20;;;;;;5020657;28;20241;-53
2023/04/08 04:35:05;;;;;;;1.88;0.90;;;21.10;66.20;;;;;;5024841;28;20607;-54
2023/04/08 04:37:33;;;;;;;1.17;1.08;;;21.10;66.10;;;;;;5024645;28;20196;-56
2023/04/08 04:40:00;;;;;;;1.35;1.20;;;21.10;66.20;;;;;;5019586;28;20207;-54
2023/04/08 04:42:28;;;;;;;1.25;1.15;;;21.10;66.20;;;;;;5023647;28;20250;-57
2023/04/08 04:44:55;;;;;;;1.20;1.10;;;21.10;66.20;;;;;;5017042;28;20242;-50
2023/04/08 04:47:22;;;;;;;1.30;1.20;;;21.10;66.20;;;;;;5020495;28;20200;-53
2023/04/08 04:49:48;;;;;;;1.40;0.90;;;21.10;66.20;;;;;;5017849;28;20239;-52
2023/04/08 04:52:16;;;;;;;1.40;1.30;;;21.10;66.20;;;;;;5012699;28;20246;-53
2023/04/08 04:54:43;;;;;;;1.10;0.90;;;21.10;66.20;;;;;;5010271;28;20196;-53
2023/04/08 04:57:10;;;;;;;1.30;1.20;;;21.10;66.20;;;;;;5020358;28;20223;-55
2023/04/08 04:59:37;;;;;;;1.20;1.10;;;21.10;66.20;;;;;;5015967;28;20220;-53
2023/04/08 05:02:05;;;;;;;1.20;1.00;;;21.10;67.00;;;;;;5014466;28;20263;-56
2023/04/08 05:04:33;;;;;;;1.42;1.13;;;21.00;66.10;;;;;;5024645;28;20544;-54
2023/04/08 05:07:00;;;;;;;1.30;1.10;;;21.00;66.10;;;;;;5015905;28;20652;-53
2023/04/08 05:09:29;;;;;;;1.10;1.00;;;21.10;66.30;;;;;;5016114;28;20696;-56
2023/04/08 05:11:56;;;;;;;3.67;1.10;;;21.10;66.20;;;;;;5015099;28;20284;-49
2023/04/08 05:14:23;;;;;;;1.45;1.35;;;21.00;66.00;;;;;;5013679;28;20295;-55
2023/04/08 05:16:49;;;;;;;1.17;1.08;;;21.00;66.00;;;;;;5017769;28;20191;-52
2023/04/08 05:19:16;;;;;;;1.17;0.90;;;21.00;66.10;;;;;;5026775;28;20250;-57
2023/04/08 05:21:43;;;;;;;1.30;1.20;;;21.00;66.00;;;;;;5013175;28;20232;-53
2023/04/08 05:24:09;;;;;;;1.40;1.30;;;21.00;66.10;;;;;;5014490;28;20192;-54
2023/04/08 05:26:38;;;;;;;1.20;1.10;;;21.00;66.20;;;;;;5022096;28;20209;-53
2023/04/08 05:29:05;;;;;;;1.10;0.90;;;21.10;66.30;;;;;;5017310;28;20857;-55
2023/04/08 05:31:32;;;;;;;1.20;1.10;;;21.10;66.30;;;;;;5015145;28;20198;-56
2023/04/08 05:34:01;;;;;;;1.50;1.10;;;21.10;66.30;;;;;;5026089;28;20848;-56
2023/04/08 05:36:28;;;;;;;1.35;1.00;;;21.10;66.30;;;;;;5018872;28;20679;-53
2023/04/08 05:38:55;;;;;;;1.10;0.90;;;21.10;66.20;;;;;;5023323;28;20258;-59
2023/04/08 05:41:21;;;;;;;1.10;1.00;;;21.10;66.20;;;;;;5021468;28;20211;-52
2023/04/08 05:43:49;;;;;;;1.10;1.00;;;21.10;66.10;;;;;;5013156;28;20213;-54
2023/04/08 05:46:16;;;;;;;1.20;1.00;;;21.10;66.00;;;;;;5014606;28;20417;-55
2023/04/08 05:48:43;;;;;;;1.38;1.27;;;21.10;66.10;;;;;;5015177;28;20216;-59
2023/04/08 05:51:13;;;;;;;13.77;1.65;;;21.10;66.00;;;;;;5010437;28;20201;-53
2023/04/08 05:53:44;;;;;;;1.10;1.00;;;21.10;66.10;;;;;;5016751;28;20200;-56
2023/04/08 05:56:11;;;;;;;1.30;1.00;;;21.10;66.30;;;;;;5024916;28;20636;-52
2023/04/08 05:58:38;;;;;;;1.10;0.90;;;21.10;66.20;;;;;;5022045;28;20794;-56
2023/04/08 06:01:07;;;;;;;1.30;1.20;;;21.10;66.20;;;;;;5024439;28;20225;-52
2023/04/08 06:03:34;;;;;;;1.30;1.00;;;21.10;66.50;;;;;;5015554;28;20736;-50
2023/04/08 06:06:01;;;;;;;1.20;1.10;;;21.10;66.50;;;;;;5023055;28;20871;-55
2023/04/08 06:08:27;;;;;;;2.05;1.30;;;21.10;66.60;;;;;;5023607;28;20623;-52
2023/04/08 06:10:54;;;;;;;1.00;0.90;;;21.10;66.50;;;;;;5021259;28;20192;-50
2023/04/08 06:13:29;;;;;;;1.30;1.10;;;21.10;66.50;;;;;;5016394;28;20204;-58
2023/04/08 06:15:55;;;;;;;2.30;1.10;;;21.20;66.60;;;;;;5029207;28;20196;-53
2023/04/08 06:18:23;;;;;;;1.05;0.90;;;21.20;66.60;;;;;;5019657;28;20243;-55
2023/04/08 06:20:50;;;;;;;2.53;1.20;;;21.20;66.50;;;;;;5019608;28;20200;-51
2023/04/08 06:23:17;;;;;;;2.35;1.27;;;21.20;66.50;;;;;;5026293;28;20217;-51
2023/04/08 06:25:43;;;;;;;1.48;1.13;;;21.20;66.50;;;;;;5030536;28;20196;-54
2023/04/08 06:28:10;;;;;;;1.10;1.00;;;21.20;66.40;;;;;;5024242;28;20258;-54
2023/04/08 06:30:38;;;;;;;1.45;1.08;;;21.30;66.50;;;;;;5020840;28;20192;-52
2023/04/08 06:33:06;;;;;;;0.90;0.80;;;21.20;66.30;;;;;;5017698;28;20644;-54
2023/04/08 06:35:34;;;;;;;1.20;1.05;;;21.20;66.40;;;;;;5030054;28;20207;-51
2023/04/08 06:38:01;;;;;;;1.30;1.20;;;21.20;66.30;;;;;;5024245;28;20620;-55
2023/04/08 06:40:30;;;;;;;1.15;1.00;;;21.30;66.40;;;;;;5028091;28;20653;-52
2023/04/08 06:42:57;;;;;;;1.45;1.35;;;21.30;66.30;;;;;;5028374;28;20204;-54
2023/04/08 06:45:27;;;;;;;1.90;1.15;;;21.30;66.30;;;;;;5011390;28;20203;-51
2023/04/08 06:47:55;;;;;;;1.38;1.10;;;21.30;66.40;;;;;;5021362;28;20193;-52
2023/04/08 06:50:21;;;;;;;1.10;1.00;;;21.30;66.40;;;;;;5035525;28;20649;-52
2023/04/08 06:52:50;;;;;;;1.30;0.98;;;21.30;66.30;;;;;;5023622;28;20197;-52
2023/04/08 06:55:16;;;;;;;1.65;1.20;;;21.30;66.30;;;;;;5021232;28;20197;-54
2023/04/08 06:57:43;;;;;;;1.30;0.98;;;21.30;66.30;;;;;;5025176;28;20209;-58
2023/04/08 07:00:13;;;;;;;1.10;0.90;;;21.40;66.30;;;;;;5017402;28;20204;-53
2023/04/08 07:02:39;;;;;;;1.20;1.10;;;21.30;66.20;;;;;;5013137;28;20201;-54
2023/04/08 07:05:07;;;;;;;1.65;1.50;;;21.40;66.30;;;;;;5018147;28;20192;-50
2023/04/08 07:07:33;;;;;;;1.00;0.90;;;21.40;66.40;;;;;;5018603;28;20243;-53
2023/04/08 07:10:04;;;;;;;1.90;1.20;;;21.40;66.40;;;;;;5020573;28;20230;-49
2023/04/08 07:12:30;;;;;;;1.75;1.60;;;21.40;66.50;;;;;;5020589;28;20196;-53
2023/04/08 07:14:57;;;;;;;1.00;0.90;;;21.40;66.60;;;;;;5008559;28;20200;-49
2023/04/08 07:17:24;;;;;;;1.20;1.10;;;21.40;66.70;;;;;;5016993;28;20201;-52
2023/04/08 07:19:53;;;;;;;1.23;0.90;;;21.40;66.90;;;;;;5019218;28;20196;-50
2023/04/08 07:22:20;;;;;;;1.33;1.23;;;21.40;66.80;;;;;;5012649;28;20215;-53
2023/04/08 07:24:48;;;;;;;1.70;1.05;;;21.40;67.00;;;;;;5013991;28;20209;-49
2023/04/08 07:27:17;;;;;;;1.00;0.80;;;21.40;67.00;;;;;;5008192;28;20201;-55
2023/04/08 07:29:43;;;;;;;1.20;0.90;;;21.40;67.00;;;;;;5021236;28;20333;-55
2023/04/08 07:32:10;;;;;;;2.95;0.90;;;21.40;67.00;;;;;;5013291;28;20196;-52
2023/04/08 07:34:37;;;;;;;1.58;1.45;;;21.40;67.00;;;;;;5024242;28;20196;-53
2023/04/08 07:37:04;;;;;;;1.52;0.98;;;21.40;67.00;;;;;;5014319;28;20192;-55
2023/04/08 07:39:30;;;;;;;1.20;1.10;;;21.40;66.90;;;;;;5020648;28;20196;-51
2023/04/08 07:41:57;;;;;;;1.20;1.00;;;21.40;66.80;;;;;;5029016;28;20274;-53
2023/04/08 07:44:28;;;;;;;1.20;0.90;;;21.40;66.80;;;;;;5024860;28;20200;-53
2023/04/08 07:46:55;;;;;;;1.55;1.10;;;21.40;66.80;;;;;;5018186;28;20196;-54
2023/04/08 07:49:24;;;;;;;1.90;0.80;;;21.40;66.90;;;;;;5017831;28;20219;-50
2023/04/08 07:51:51;;;;;;;1.30;1.00;;;21.40;66.80;;;;;;5022276;28;20196;-49
2023/04/08 07:54:18;;;;;;;1.83;1.23;;;21.40;66.80;;;;;;5018926;28;20653;-53
2023/04/08 07:56:47;;;;;;;1.38;0.98;;;21.40;66.80;;;;;;5014199;28;20216;-50
2023/04/08 07:59:14;;;;;;;1.08;0.98;;;21.40;66.80;;;;;;5022535;28;20215;-52
2023/04/08 08:01:42;;;;;;;1.10;1.00;;;21.40;66.80;;;;;;5026030;28;20275;-49
2023/04/08 08:04:09;;;;;;;1.15;1.00;;;21.40;66.80;;;;;;5017981;28;20723;-50
2023/04/08 08:06:36;;;;;;;1.20;1.00;;;21.40;66.80;;;;;;5016197;28;20693;-53
2023/04/08 08:09:02;;;;;;;0.90;0.80;;;21.40;66.70;;;;;;5025887;28;21688;-54
2023/04/08 08:11:29;;;;;;;1.65;0.95;;;21.40;66.70;;;;;;5017911;28;20197;-50
2023/04/08 08:13:56;;;;;;;1.55;0.93;;;21.50;66.80;;;;;;5011849;28;20542;-54
2023/04/08 08:16:25;;;;;;;1.23;1.13;;;21.40;66.70;;;;;;5022871;28;20282;-55
2023/04/08 08:18:54;;;;;;;1.25;1.15;;;21.50;66.70;;;;;;5024946;28;20204;-54
2023/04/08 08:21:22;;;;;;;1.25;1.15;;;21.50;66.80;;;;;;5011542;28;20208;-52
2023/04/08 08:23:49;;;;;;;1.25;1.02;;;21.50;66.80;;;;;;5015488;28;20192;-52
2023/04/08 08:26:16;;;;;;;1.38;1.15;;;21.50;67.30;;;;;;5028300;28;20196;-52
2023/04/08 08:28:45;;;;;;;1.00;0.90;;;21.40;66.70;;;;;;5010535;28;20495;-52
2023/04/08 08:31:12;;;;;;;1.30;1.20;;;21.50;67.00;;;;;;5004725;28;20281;-57
2023/04/08 08:33:39;;;;;;;1.08;0.95;;;21.50;67.00;;;;;;5015299;28;20287;-54
2023/04/08 08:36:07;;;;;;;1.03;0.90;;;21.50;66.80;;;;;;5016917;28;20561;-53
2023/04/08 08:38:35;;;;;;;1.00;0.90;;;21.50;66.70;;;;;;5015094;28;20804;-53
2023/04/08 08:41:03;;;;;;;1.20;1.00;;;21.50;66.90;;;;;;5026327;28;20227;-51
2023/04/08 08:43:33;;;;;;;1.00;0.80;;;21.50;67.10;;;;;;5027039;28;20262;-52
2023/04/08 08:46:00;;;;;;;1.13;1.02;;;21.50;67.00;;;;;;5022243;28;20204;-55
2023/04/08 08:48:27;;;;;;;3.05;1.00;;;21.50;66.90;;;;;;5015042;28;20569;-59
2023/04/08 08:50:54;;;;;;;3.15;1.10;;;21.50;67.00;;;;;;5016222;28;20232;-51
2023/04/08 08:53:30;;;;;;;1.42;1.13;;;21.50;67.00;;;;;;5019421;28;20368;-60
2023/04/08 08:56:00;;;;;;;1.30;1.10;;;21.60;67.10;;;;;;5023186;28;20354;-57
2023/04/08 08:58:27;;;;;;;3.30;1.20;;;21.60;67.20;;;;;;5008834;28;20592;-58
2023/04/08 09:00:57;;;;;;;1.77;1.20;;;21.60;67.30;;;;;;5008529;28;20203;-58
2023/04/08 09:03:26;;;;;;;1.20;1.05;;;21.60;67.50;;;;;;5008045;28;20200;-59
2023/04/08 09:05:54;;;;;;;1.10;0.90;;;21.60;67.30;;;;;;5018669;28;20203;-60
2023/04/08 09:08:27;;;;;;;1.75;0.90;;;21.60;67.60;;;;;;5023328;28;20612;-58
2023/04/08 09:10:54;;;;;;;4.60;1.10;;;21.60;67.60;;;;;;5008447;28;20276;-59
2023/04/08 09:13:25;;;;;;;1.10;1.00;;;21.60;67.70;;;;;;5006104;28;20196;-59
2023/04/08 09:16:02;;;;;;;2.75;1.10;;;21.60;67.70;;;;;;5007080;28;20484;-55
2023/04/08 09:18:30;;;;;;;1.85;1.00;;;21.60;67.80;;;;;;5015788;28;20272;-58
2023/04/08 09:20:56;;;;;;;1.50;1.40;;;21.60;67.80;;;;;;5009027;28;20216;-59
2023/04/08 09:23:25;;;;;;;1.40;1.13;;;21.60;67.80;;;;;;5010855;28;20595;-60
2023/04/08 09:25:52;;;;;;;1.25;1.05;;;21.60;67.70;;;;;;5020568;28;20193;-60
2023/04/08 09:28:21;;;;;;;1.85;1.60;;;21.60;67.70;;;;;;5024031;28;20193;-59
2023/04/08 09:30:48;;;;;;;2.70;1.35;;;21.60;67.60;;;;;;5012803;28;20212;-60
2023/04/08 09:33:14;;;;;;;1.63;1.40;;;21.50;67.50;;;;;;5020046;28;20676;-59
2023/04/08 09:35:45;;;;;;;1.25;0.90;;;21.50;67.50;;;;;;5012125;28;20201;-60
2023/04/08 09:38:12;;;;;;;3.72;1.63;;;21.50;67.50;;;;;;5013891;28;21771;-59
2023/04/08 09:40:42;;;;;;;1.52;1.00;;;21.50;67.50;;;;;;5019526;28;20196;-60
2023/04/08 09:43:11;;;;;;;1.88;0.95;;;21.50;67.30;;;;;;5013266;28;20640;-60
2023/04/08 09:45:42;;;;;;;1.40;1.05;;;21.50;67.30;;;;;;5015357;28;20244;-59
2023/04/08 09:48:12;;;;;;;2.00;1.30;;;21.50;67.30;;;;;;5009972;28;20199;-59
2023/04/08 09:50:44;;;;;;;1.35;1.15;;;21.50;67.30;;;;;;5028610;28;20216;-60
2023/04/08 09:53:17;;;;;;;1.10;1.00;;;21.50;67.30;;;;;;5020441;28;20279;-59
2023/04/08 09:55:50;;;;;;;3.63;1.17;;;21.50;67.20;;;;;;5018426;28;20197;-60
2023/04/08 09:58:23;;;;;;;1.25;1.10;;;21.50;67.20;;;;;;5018839;28;20452;-59
2023/04/08 10:00:53;;;;;;;1.33;1.23;;;21.50;67.10;;;;;;5013661;28;20247;-59
2023/04/08 10:03:27;;;;;;;1.55;1.05;;;21.50;67.10;;;;;;5022477;28;20204;-59
2023/04/08 10:05:55;;;;;;;1.20;1.08;;;21.40;67.00;;;;;;5023032;28;20238;-59
2023/04/08 10:08:23;;;;;;;1.40;1.30;;;21.40;67.00;;;;;;5024548;28;20201;-60
2023/04/08 10:10:51;;;;;;;4.22;1.10;;;21.40;67.00;;;;;;5022600;28;20224;-60
2023/04/08 10:13:18;;;;;;;1.40;1.10;;;21.50;67.10;;;;;;5012960;28;20193;-59
2023/04/08 10:15:47;;;;;;;1.40;1.30;;;21.50;67.10;;;;;;5018651;28;20203;-60
2023/04/08 10:18:33;;;;;;;1.30;0.95;;;21.50;67.10;;;;;;5018806;28;20193;-60
2023/04/08 10:21:00;;;;;;;1.30;1.20;;;21.50;67.10;;;;;;5022119;28;20686;-59
2023/04/08 10:24:05;;;;;;;1.70;1.10;;;21.50;67.00;;;;;;5024166;28;20224;-59
2023/04/08 10:26:35;;;;;;;1.23;0.93;;;21.50;67.00;;;;;;5018757;28;20210;-59
2023/04/08 10:29:41;;;;;;;1.50;1.00;;;21.50;66.90;;;;;;5023875;28;20204;-60
2023/04/08 10:32:10;;;;;;;1.10;0.95;;;21.50;67.00;;;;;;5024311;28;20204;-60
2023/04/08 10:34:52;;;;;;;3.35;1.70;;;21.60;67.10;;;;;;5025645;28;20200;-58
2023/04/08 10:37:19;;;;;;;5.23;1.30;;;21.60;67.00;;;;;;5014338;28;20196;-52
2023/04/08 10:39:50;;;;;;;1.50;1.20;;;21.60;67.00;;;;;;5019916;28;20463;-61
2023/04/08 10:42:21;;;;;;;3.83;1.25;;;21.60;67.10;;;;;;5019415;28;20484;-56
2023/04/08 10:44:50;;;;;;;1.20;0.90;;;21.60;67.40;;;;;;5025475;28;20936;-58
2023/04/08 10:47:24;;;;;;;2.07;1.20;;;21.60;67.50;;;;;;5016962;28;20231;-59
2023/04/08 10:49:51;;;;;;;1.50;1.07;;;21.70;67.70;;;;;;5023504;28;20696;-62
2023/04/08 10:52:20;;;;;;;2.20;1.00;;;21.70;67.90;;;;;;5023985;28;20486;-54
2023/04/08 10:54:48;;;;;;;1.40;1.03;;;21.70;67.90;;;;;;5017846;28;20842;-54
2023/04/08 10:57:15;;;;;;;1.88;1.10;;;21.70;68.00;;;;;;5022959;28;20455;-61
2023/04/08 10:59:44;;;;;;;2.40;0.90;;;21.70;68.10;;;;;;5016021;28;20203;-56
2023/04/08 11:02:13;;;;;;;1.20;0.90;;;21.80;68.20;;;;;;5017471;28;20491;-58
2023/04/08 11:04:42;;;;;;;2.33;1.30;;;21.80;68.30;;;;;;5015382;28;20201;-55
2023/04/08 11:07:08;;;;;;;1.27;1.07;;;21.80;68.30;;;;;;5016663;28;20242;-61
2023/04/08 11:09:35;;;;;;;1.20;1.10;;;21.80;68.30;;;;;;5018390;28;20466;-62
2023/04/08 11:12:04;;;;;;;1.40;1.10;;;21.80;68.00;;;;;;5022425;28;20470;-60
2023/04/08 11:14:32;;;;;;;1.60;1.50;;;21.80;67.80;;;;;;5017235;28;20197;-55
2023/04/08 11:17:00;;;;;;;2.03;1.30;;;21.80;67.70;;;;;;5014283;28;20286;-53
2023/04/08 11:19:27;;;;;;;4.20;1.60;;;21.80;67.80;;;;;;5025196;28;20992;-55
2023/04/08 11:21:53;;;;;;;2.90;1.00;;;21.90;67.90;;;;;;5011117;28;20487;-55
2023/04/08 11:24:21;;;;;;;2.73;1.40;;;21.90;67.90;;;;;;5015416;28;20468;-55
2023/04/08 11:26:48;;;;;;;3.10;1.30;;;21.90;67.90;;;;;;5012859;28;20870;-57
2023/04/08 11:29:17;;;;;;;1.60;1.50;;;21.90;67.80;;;;;;5013356;28;20467;-54
2023/04/08 11:31:44;;;;;;;1.75;1.20;;;21.90;67.80;;;;;;5011285;28;20494;-62
2023/04/08 11:34:12;;;;;;;1.80;1.23;;;21.90;67.80;;;;;;5017968;28;20530;-49
2023/04/08 11:36:40;;;;;;;1.87;1.10;;;22.00;67.90;;;;;;5027299;28;20506;-51
2023/04/08 11:39:09;;;;;;;1.00;0.83;;;22.00;67.90;;;;;;5017029;28;20462;-56
2023/04/08 11:41:38;;;;;;;1.23;0.97;;;22.00;67.90;;;;;;5024610;28;20463;-56
2023/04/08 11:44:05;;;;;;;4.90;1.30;;;22.00;68.00;;;;;;5015166;28;20810;-52
2023/04/08 11:46:32;;;;;;;1.73;1.10;;;22.00;68.00;;;;;;5012949;28;20498;-50
2023/04/08 11:49:04;;;;;;;1.20;1.10;;;22.00;67.90;;;;;;5024224;28;20509;-51
2023/04/08 11:51:34;;;;;;;1.63;1.00;;;22.00;68.00;;;;;;5018943;28;20479;-52
2023/04/08 11:54:01;;;;;;;3.60;1.33;;;22.00;68.10;;;;;;5029352;28;20204;-54
2023/04/08 11:56:32;;;;;;;1.40;1.13;;;22.00;68.10;;;;;;5027614;28;20804;-52
2023/04/08 11:58:59;;;;;;;1.40;1.20;;;22.10;68.20;;;;;;5021959;28;20877;-49
2023/04/08 12:01:26;;;;;;;1.93;1.07;;;22.10;68.20;;;;;;5029228;28;20479;-57
2023/04/08 12:03:55;;;;;;;1.30;1.20;;;22.20;68.20;;;;;;5028589;28;20513;-54
2023/04/08 12:06:22;;;;;;;2.70;1.30;;;22.10;68.10;;;;;;5020776;28;20451;-57
2023/04/08 12:08:50;;;;;;;2.03;1.10;;;22.20;68.10;;;;;;5024737;28;20470;-59
2023/04/08 12:11:17;;;;;;;1.10;1.00;;;22.20;68.10;;;;;;5014011;28;20483;-58
2023/04/08 12:13:43;;;;;;;1.00;0.83;;;22.20;68.00;;;;;;5012689;28;20459;-61
2023/04/08 12:16:11;;;;;;;1.90;1.40;;;22.20;67.90;;;;;;5021004;28;20758;-52
2023/04/08 12:18:37;;;;;;;3.23;1.20;;;22.20;67.90;;;;;;5026189;28;20973;-56
2023/04/08 12:21:04;;;;;;;3.70;0.93;;;22.20;67.90;;;;;;5017429;28;20546;-51
2023/04/08 12:23:31;;;;;;;1.10;1.00;;;22.20;67.80;;;;;;5026223;28;20544;-54
2023/04/08 12:25:59;;;;;;;1.70;1.00;;;22.20;67.80;;;;;;5013698;28;20881;-58
2023/04/08 12:28:25;;;;;;;1.27;1.10;;;22.30;68.00;;;;;;5022293;28;20468;-60
2023/04/08 12:30:52;;;;;;;1.30;1.20;;;22.30;67.90;;;;;;5022377;28;20524;-59
2023/04/08 12:33:19;;;;;;;1.43;0.80;;;22.30;67.90;;;;;;5015609;28;20466;-58
2023/04/08 12:35:46;;;;;;;0.90;0.70;;;22.30;68.00;;;;;;5019465;28;20913;-60
2023/04/08 12:38:12;;;;;;;1.50;1.20;;;22.30;68.00;;;;;;5022540;28;20462;-59
2023/04/08 12:40:39;;;;;;;1.73;1.23;;;22.30;67.90;;;;;;5025902;28;20458;-52
2023/04/08 12:43:07;;;;;;;3.30;1.00;;;22.40;67.90;;;;;;5018191;28;20475;-48
2023/04/08 12:45:34;;;;;;;5.13;1.17;;;22.40;67.90;;;;;;5026405;28;20475;-56
2023/04/08 12:48:01;;;;;;;1.50;1.03;;;22.40;67.80;;;;;;5011552;28;20860;-54
2023/04/08 12:50:27;;;;;;;2.70;1.10;;;22.40;67.10;;;;;;5020543;28;20517;-58
2023/04/08 12:52:54;;;;;;;1.67;1.20;;;22.40;67.20;;;;;;5018044;28;20458;-58
2023/04/08 12:55:23;;;;;;;1.30;1.20;;;22.40;67.30;;;;;;5021340;28;20969;-55
2023/04/08 12:57:50;;;;;;;4.70;1.20;;;22.40;67.00;;;;;;5013451;28;20944;-58
2023/04/08 13:00:19;;;;;;;1.30;1.10;;;22.40;67.10;;;;;;5021454;28;20518;-63